< < Back
Terminal Aerodrome Forecast


Current Version              Previous Versions:   1  2  3  4  5  6  7  8  9  

Terminal Aerodrome Forecast

996
FTUS42 KILM 231700
TAFILM
TAF
KILM 231720Z 2318/2418 31014G20KT P6SM SKC
     FM240000 36005KT P6SM SKC=

Latest METAR

650
SAUS70 KWBC 241200 RRA
MTRILM
METAR KILM 241153Z 04009KT 10SM CLR 12/05 A3009 RMK AO2 SLP190 T01220050
10122 20083 53029


USA.gov is the U.S. government's official web portal to all federal, state and local government web resources and services.